createdAt,value
2022-10-26T00:01:05.114Z,16.60
2022-10-26T00:03:32.963Z,16.60
2022-10-26T00:06:12.515Z,16.60
2022-10-26T00:08:39.950Z,16.50
2022-10-26T00:11:07.753Z,16.40
2022-10-26T00:13:35.237Z,16.50
2022-10-26T00:16:07.216Z,16.50
2022-10-26T00:18:33.898Z,16.60
2022-10-26T00:21:05.203Z,16.50
2022-10-26T00:23:32.736Z,16.40
2022-10-26T00:25:59.907Z,16.40
2022-10-26T00:28:27.327Z,16.40
2022-10-26T00:30:54.463Z,16.20
2022-10-26T00:33:21.448Z,16.30
2022-10-26T00:35:53.198Z,16.30
2022-10-26T00:38:20.202Z,16.30
2022-10-26T00:40:47.413Z,16.20
2022-10-26T00:43:38.978Z,16.20
2022-10-26T00:46:08.822Z,16.10
2022-10-26T00:48:40.136Z,16.00
2022-10-26T00:51:11.703Z,16.00
2022-10-26T00:53:38.824Z,16.00
2022-10-26T00:56:06.007Z,16.00
2022-10-26T00:58:34.545Z,16.10
2022-10-26T01:01:01.297Z,16.10
2022-10-26T01:03:29.118Z,16.00
2022-10-26T01:05:57.562Z,16.00
2022-10-26T01:08:25.709Z,15.90
2022-10-26T01:10:52.809Z,15.90
2022-10-26T01:13:20.100Z,15.60
2022-10-26T01:15:55.482Z,15.60
2022-10-26T01:18:35.948Z,15.70
2022-10-26T01:21:02.677Z,15.60
2022-10-26T01:24:03.397Z,15.80
2022-10-26T01:27:03.957Z,15.90
2022-10-26T01:29:52.049Z,15.90
2022-10-26T01:32:23.760Z,16.00
2022-10-26T01:35:08.495Z,16.10
2022-10-26T01:37:41.866Z,16.10
2022-10-26T01:40:21.949Z,16.30
2022-10-26T01:42:52.040Z,16.20
2022-10-26T01:45:19.433Z,16.20
2022-10-26T01:47:48.337Z,16.20
2022-10-26T01:50:16.808Z,16.40
2022-10-26T01:52:43.673Z,16.30
2022-10-26T01:55:39.201Z,16.40
2022-10-26T01:58:22.882Z,16.40
2022-10-26T02:01:13.908Z,16.50
2022-10-26T02:03:50.411Z,16.50
2022-10-26T02:06:40.722Z,16.60
2022-10-26T02:09:28.011Z,16.60
2022-10-26T02:11:55.740Z,16.70
2022-10-26T02:14:42.732Z,16.80
2022-10-26T02:17:20.662Z,16.80
2022-10-26T02:19:50.212Z,16.90
2022-10-26T02:22:16.918Z,16.90
2022-10-26T02:24:44.743Z,17.00
2022-10-26T02:27:17.737Z,17.00
2022-10-26T02:29:45.020Z,17.10
2022-10-26T02:32:12.997Z,17.00
2022-10-26T02:34:43.432Z,16.90
2022-10-26T02:37:11.724Z,16.90
2022-10-26T02:39:40.684Z,16.70
2022-10-26T02:42:09.412Z,16.60
2022-10-26T02:44:45.974Z,16.70
2022-10-26T02:47:13.424Z,16.70
2022-10-26T02:49:40.801Z,16.70
2022-10-26T02:52:19.634Z,16.70
2022-10-26T02:55:00.389Z,16.60
2022-10-26T02:57:39.781Z,16.60
2022-10-26T03:00:19.804Z,16.60
2022-10-26T03:02:53.027Z,16.60
2022-10-26T03:05:22.975Z,16.60
2022-10-26T03:07:49.804Z,16.70
2022-10-26T03:10:16.654Z,16.70
2022-10-26T03:12:43.541Z,16.80
2022-10-26T03:15:10.444Z,16.90
2022-10-26T03:17:37.157Z,16.90
2022-10-26T03:20:04.466Z,16.90
2022-10-26T03:22:31.228Z,16.80
2022-10-26T03:24:57.990Z,16.70
2022-10-26T03:27:24.836Z,16.70
2022-10-26T03:29:51.537Z,16.80
2022-10-26T03:32:18.462Z,16.70
2022-10-26T03:34:45.149Z,16.80
2022-10-26T03:37:12.084Z,16.90
2022-10-26T03:39:38.756Z,16.90
2022-10-26T03:42:05.532Z,16.70
2022-10-26T03:44:32.285Z,16.80
2022-10-26T03:46:58.973Z,16.90
2022-10-26T03:49:25.781Z,16.80
2022-10-26T03:51:52.506Z,16.90
2022-10-26T03:54:19.293Z,16.90
2022-10-26T03:56:46.013Z,16.90
2022-10-26T03:59:12.685Z,16.90
2022-10-26T04:01:40.100Z,16.90
2022-10-26T04:04:07.117Z,17.00
2022-10-26T04:06:33.920Z,17.10
2022-10-26T04:09:02.410Z,17.30
2022-10-26T04:11:29.897Z,17.50
2022-10-26T04:13:59.558Z,17.70
2022-10-26T04:16:30.978Z,17.80
2022-10-26T04:19:00.384Z,17.90
2022-10-26T04:21:27.125Z,17.90
2022-10-26T04:23:53.874Z,17.80
2022-10-26T04:26:20.761Z,17.80
2022-10-26T04:28:47.444Z,17.80
2022-10-26T04:31:14.189Z,17.80
2022-10-26T04:33:40.961Z,17.80
2022-10-26T04:36:08.197Z,17.80
2022-10-26T04:38:34.897Z,17.80
2022-10-26T04:41:01.882Z,17.80
2022-10-26T04:43:28.869Z,17.80
2022-10-26T04:45:57.197Z,17.90
2022-10-26T04:50:59.698Z,17.80
2022-10-26T04:53:26.978Z,17.80
2022-10-26T04:56:01.272Z,17.80
2022-10-26T04:58:28.759Z,17.80
2022-10-26T05:00:56.108Z,17.80
2022-10-26T05:03:22.932Z,17.70
2022-10-26T05:05:49.842Z,17.80
2022-10-26T05:08:16.624Z,17.60
2022-10-26T05:10:43.475Z,17.60
2022-10-26T05:13:10.939Z,17.50
2022-10-26T05:15:37.681Z,17.50
2022-10-26T05:18:05.735Z,17.50
2022-10-26T05:20:34.655Z,17.30
2022-10-26T05:23:07.330Z,17.30
2022-10-26T05:25:38.048Z,17.20
2022-10-26T05:28:08.445Z,17.10
2022-10-26T05:30:35.419Z,17.00
2022-10-26T05:33:03.369Z,17.00
2022-10-26T05:35:31.217Z,16.90
2022-10-26T05:37:58.412Z,17.00
2022-10-26T05:40:25.533Z,17.10
2022-10-26T05:42:52.908Z,17.10
2022-10-26T05:45:20.073Z,17.00
2022-10-26T05:47:47.354Z,17.10
2022-10-26T05:50:14.614Z,17.20
2022-10-26T05:52:43.289Z,17.00
2022-10-26T05:55:11.729Z,17.00
2022-10-26T05:57:39.274Z,17.00
2022-10-26T06:00:14.930Z,17.10
2022-10-26T06:03:32.678Z,17.10
2022-10-26T06:06:02.570Z,17.00
2022-10-26T06:08:32.283Z,16.80
2022-10-26T06:10:59.584Z,16.70
2022-10-26T06:13:26.742Z,16.70
2022-10-26T06:16:12.538Z,16.80
2022-10-26T06:18:59.529Z,16.80
2022-10-26T06:22:05.618Z,16.90
2022-10-26T06:24:44.391Z,16.90
2022-10-26T06:27:33.476Z,16.80
2022-10-26T06:30:11.768Z,16.80
2022-10-26T06:32:40.805Z,16.80
2022-10-26T06:35:10.218Z,17.00
2022-10-26T06:37:38.690Z,17.00
2022-10-26T06:40:06.804Z,17.10
2022-10-26T06:42:33.719Z,17.20
2022-10-26T06:45:00.722Z,17.30
2022-10-26T06:47:51.988Z,17.40
2022-10-26T06:50:37.672Z,17.50
2022-10-26T06:53:20.843Z,17.50
2022-10-26T06:55:50.072Z,17.50
2022-10-26T06:58:22.412Z,17.50
2022-10-26T07:00:51.229Z,17.50
2022-10-26T07:03:17.947Z,17.60
2022-10-26T07:05:45.378Z,17.60
2022-10-26T07:08:12.673Z,17.60
2022-10-26T07:10:39.853Z,17.60
2022-10-26T07:13:07.330Z,17.60
2022-10-26T07:15:35.542Z,17.70
2022-10-26T07:18:05.741Z,17.80
2022-10-26T07:20:37.860Z,17.90
2022-10-26T07:23:08.418Z,18.00
2022-10-26T07:25:38.837Z,18.20
2022-10-26T07:28:06.447Z,18.30
2022-10-26T07:30:33.585Z,18.40
2022-10-26T07:33:06.289Z,18.50
2022-10-26T07:35:34.227Z,18.60
2022-10-26T07:38:01.425Z,18.70
2022-10-26T07:40:28.916Z,18.80
2022-10-26T07:43:00.568Z,18.80
2022-10-26T07:45:28.756Z,18.90
2022-10-26T07:47:56.023Z,19.10
2022-10-26T07:50:23.577Z,19.20
2022-10-26T07:52:50.776Z,19.30
2022-10-26T07:55:19.057Z,19.40
2022-10-26T07:57:47.566Z,19.50
2022-10-26T08:00:17.965Z,19.60
2022-10-26T08:02:45.245Z,19.70
2022-10-26T08:05:11.960Z,19.80
2022-10-26T08:07:43.670Z,19.90
2022-10-26T08:10:11.561Z,20.00
2022-10-26T08:12:38.506Z,20.00
2022-10-26T08:15:05.709Z,20.10
2022-10-26T08:17:32.470Z,20.10
2022-10-26T08:19:59.328Z,20.10
2022-10-26T08:22:26.263Z,20.20
2022-10-26T08:24:52.952Z,20.20
2022-10-26T08:27:19.709Z,20.20
2022-10-26T08:29:46.412Z,20.20
2022-10-26T08:32:13.190Z,20.20
2022-10-26T08:34:39.954Z,20.10
2022-10-26T08:37:06.673Z,20.10
2022-10-26T08:39:33.507Z,20.20
2022-10-26T08:42:13.881Z,20.20
2022-10-26T08:44:48.427Z,20.20
2022-10-26T08:47:21.983Z,20.40
2022-10-26T08:50:11.177Z,20.40
2022-10-26T08:52:52.013Z,20.50
2022-10-26T08:55:23.705Z,20.60
2022-10-26T08:57:52.077Z,20.70
2022-10-26T09:00:25.074Z,20.70
2022-10-26T09:02:53.252Z,20.80
2022-10-26T09:05:37.072Z,20.80
2022-10-26T09:08:14.825Z,20.80
2022-10-26T09:10:58.676Z,20.80
2022-10-26T09:13:35.257Z,20.80
2022-10-26T09:16:10.789Z,20.90
2022-10-26T09:19:18.644Z,20.90
2022-10-26T09:22:24.304Z,21.10
2022-10-26T09:25:05.437Z,21.10
2022-10-26T09:27:43.464Z,21.20
2022-10-26T09:30:18.800Z,21.40
2022-10-26T09:32:48.579Z,21.50
2022-10-26T09:35:43.024Z,21.70
2022-10-26T09:38:27.731Z,21.80
2022-10-26T09:41:31.802Z,22.00
2022-10-26T09:44:29.286Z,22.20
2022-10-26T09:47:06.184Z,22.30
2022-10-26T09:49:48.699Z,22.30
2022-10-26T09:52:16.538Z,22.30
2022-10-26T09:54:43.680Z,22.40
2022-10-26T09:57:15.106Z,22.40
2022-10-26T09:59:42.512Z,22.60
2022-10-26T10:02:38.651Z,22.80
2022-10-26T10:05:49.746Z,22.90
2022-10-26T10:08:25.904Z,23.00
2022-10-26T10:11:13.053Z,23.10
2022-10-26T10:13:45.322Z,23.10
2022-10-26T10:16:23.772Z,23.20
2022-10-26T10:19:00.733Z,23.30
2022-10-26T10:21:44.780Z,23.30
2022-10-26T10:24:52.477Z,23.30
2022-10-26T10:27:19.747Z,23.30
2022-10-26T10:29:49.827Z,23.40
2022-10-26T10:32:27.046Z,23.30
2022-10-26T10:34:58.560Z,23.30
2022-10-26T10:37:39.574Z,23.20
2022-10-26T10:40:09.661Z,23.20
2022-10-26T10:42:40.243Z,23.30
2022-10-26T10:45:19.285Z,23.30
2022-10-26T10:47:59.370Z,23.30
2022-10-26T10:50:26.193Z,23.30
2022-10-26T10:52:53.198Z,23.20
2022-10-26T10:55:21.803Z,23.10
2022-10-26T10:58:24.834Z,23.10
2022-10-26T11:00:54.502Z,23.10
2022-10-26T11:03:45.808Z,23.20
2022-10-26T11:06:17.534Z,21.90
2022-10-26T11:08:54.494Z,23.20
2022-10-26T11:11:41.731Z,23.20
2022-10-26T11:14:17.047Z,23.30
2022-10-26T11:17:04.505Z,23.30
2022-10-26T11:19:55.161Z,23.40
2022-10-26T11:22:26.406Z,23.20
2022-10-26T11:25:22.791Z,23.30
2022-10-26T11:27:51.984Z,23.30
2022-10-26T11:30:27.507Z,23.30
2022-10-26T11:33:05.937Z,23.30
2022-10-26T11:35:38.713Z,23.30
2022-10-26T11:38:11.678Z,23.40
2022-10-26T11:40:53.056Z,23.30
2022-10-26T11:43:38.264Z,23.30
2022-10-26T11:46:30.415Z,23.30
2022-10-26T11:49:31.285Z,23.20
2022-10-26T11:52:17.587Z,23.30
2022-10-26T11:54:45.589Z,23.30
2022-10-26T11:57:14.369Z,23.40
2022-10-26T11:59:49.795Z,23.50
2022-10-26T12:02:24.790Z,23.50
2022-10-26T12:04:59.214Z,23.50
2022-10-26T12:07:35.854Z,23.50
2022-10-26T12:10:06.341Z,23.40
2022-10-26T12:12:53.269Z,23.50
2022-10-26T12:16:03.067Z,23.40
2022-10-26T12:18:54.421Z,23.40
2022-10-26T12:21:28.618Z,23.40
2022-10-26T12:24:23.815Z,23.50
2022-10-26T12:26:52.134Z,23.50
2022-10-26T12:29:30.894Z,23.50
2022-10-26T12:31:58.617Z,23.50
2022-10-26T12:34:49.309Z,23.50
2022-10-26T12:37:37.690Z,23.50
2022-10-26T12:40:40.671Z,23.50
2022-10-26T12:43:16.548Z,23.40
2022-10-26T12:45:45.296Z,23.40
2022-10-26T12:48:38.991Z,23.40
2022-10-26T12:51:21.730Z,23.40
2022-10-26T12:54:25.312Z,23.50
2022-10-26T12:56:57.842Z,23.50
2022-10-26T12:59:39.655Z,23.50
2022-10-26T13:02:18.605Z,23.50
2022-10-26T13:04:54.214Z,23.50
2022-10-26T13:07:22.620Z,23.50
2022-10-26T13:10:18.714Z,23.50
2022-10-26T13:13:00.301Z,23.50
2022-10-26T13:15:30.079Z,23.40
2022-10-26T13:18:18.166Z,23.50
2022-10-26T13:21:09.788Z,23.50
2022-10-26T13:23:46.566Z,23.50
2022-10-26T13:26:16.391Z,23.50
2022-10-26T13:28:50.856Z,23.50
2022-10-26T13:31:39.561Z,23.50
2022-10-26T13:34:26.560Z,23.50
2022-10-26T13:36:58.262Z,23.50
2022-10-26T13:39:30.505Z,23.40
2022-10-26T13:41:59.512Z,23.50
2022-10-26T13:44:29.097Z,23.50
2022-10-26T13:47:01.112Z,23.50
2022-10-26T13:49:38.152Z,23.50
2022-10-26T13:52:11.237Z,23.50
2022-10-26T13:54:42.885Z,23.50
2022-10-26T13:57:22.783Z,23.50
2022-10-26T13:59:51.298Z,23.60
2022-10-26T14:02:20.055Z,23.60
2022-10-26T14:05:10.222Z,23.50
2022-10-26T14:07:56.621Z,23.60
2022-10-26T14:10:36.299Z,23.50
2022-10-26T14:13:08.007Z,23.60
2022-10-26T14:15:36.392Z,23.50
2022-10-26T14:18:04.359Z,23.40
2022-10-26T14:20:32.162Z,23.40
2022-10-26T14:22:58.936Z,23.50
2022-10-26T14:25:41.731Z,23.50
2022-10-26T14:28:24.235Z,23.50
2022-10-26T14:30:51.619Z,23.50
2022-10-26T14:33:29.298Z,23.50
2022-10-26T14:35:56.850Z,23.40
2022-10-26T14:38:30.981Z,23.50
2022-10-26T14:40:58.417Z,23.50
2022-10-26T14:43:27.007Z,23.50
2022-10-26T14:45:54.482Z,23.50
2022-10-26T14:48:23.789Z,23.50
2022-10-26T14:51:18.981Z,23.50
2022-10-26T14:53:53.676Z,23.50
2022-10-26T14:56:24.072Z,23.50
2022-10-26T14:58:51.557Z,23.50
2022-10-26T15:01:30.405Z,23.40
2022-10-26T15:04:00.229Z,23.30
2022-10-26T15:06:35.537Z,23.30
2022-10-26T15:09:06.380Z,23.30
2022-10-26T15:11:34.897Z,23.20
2022-10-26T15:14:03.060Z,23.20
2022-10-26T15:16:34.094Z,23.20
2022-10-26T15:19:10.669Z,23.20
2022-10-26T15:21:42.208Z,23.20
2022-10-26T15:24:20.545Z,23.10
2022-10-26T15:26:47.922Z,23.10
2022-10-26T15:29:34.997Z,23.00
2022-10-26T15:32:03.067Z,22.90
2022-10-26T15:34:29.886Z,22.90
2022-10-26T15:36:56.818Z,22.90
2022-10-26T15:39:25.485Z,22.70
2022-10-26T15:41:53.567Z,22.60
2022-10-26T15:44:22.003Z,22.60
2022-10-26T15:46:50.096Z,22.60
2022-10-26T15:49:20.120Z,22.50
2022-10-26T15:51:48.422Z,22.50
2022-10-26T15:54:15.966Z,22.50
2022-10-26T15:56:47.714Z,22.50
2022-10-26T15:59:17.473Z,22.40
2022-10-26T16:01:44.681Z,22.30
2022-10-26T16:04:14.355Z,22.30
2022-10-26T16:06:42.174Z,22.20
2022-10-26T16:09:16.013Z,22.20
2022-10-26T16:11:43.556Z,22.10
2022-10-26T16:14:11.103Z,22.10
2022-10-26T16:16:38.909Z,22.10
2022-10-26T16:19:29.123Z,21.90
2022-10-26T16:21:52.545Z,21.90
2022-10-26T16:24:19.602Z,21.80
2022-10-26T16:26:46.508Z,21.70
2022-10-26T16:29:13.464Z,21.60
2022-10-26T16:31:40.229Z,21.50
2022-10-26T16:34:07.024Z,21.40
2022-10-26T16:36:34.532Z,21.20
2022-10-26T16:41:29.216Z,21.10
2022-10-26T16:43:56.500Z,21.00
2022-10-26T16:46:23.821Z,21.00
2022-10-26T16:48:51.888Z,20.90
2022-10-26T16:51:27.381Z,20.80
2022-10-26T16:53:55.845Z,20.80
2022-10-26T16:56:25.750Z,20.70
2022-10-26T16:58:52.932Z,20.60
2022-10-26T17:01:21.202Z,20.50
2022-10-26T17:03:50.191Z,20.50
2022-10-26T17:06:18.193Z,20.30
2022-10-26T17:08:45.470Z,20.30
2022-10-26T17:11:18.301Z,20.30
2022-10-26T17:13:45.970Z,20.40
2022-10-26T17:16:21.076Z,20.30
2022-10-26T17:18:48.339Z,20.40
2022-10-26T17:21:17.941Z,20.40
2022-10-26T17:23:44.882Z,20.40
2022-10-26T17:26:14.400Z,20.40
2022-10-26T17:28:41.372Z,20.30
2022-10-26T17:31:13.491Z,20.30
2022-10-26T17:33:45.032Z,20.30
2022-10-26T17:36:13.473Z,20.30
2022-10-26T17:38:41.794Z,20.30
2022-10-26T17:41:11.653Z,20.30
2022-10-26T17:43:39.869Z,20.30
2022-10-26T17:46:22.997Z,20.30
2022-10-26T17:48:56.475Z,20.30
2022-10-26T17:51:23.852Z,20.20
2022-10-26T17:53:51.283Z,20.20
2022-10-26T17:56:19.522Z,20.00
2022-10-26T17:58:54.912Z,19.90
2022-10-26T18:01:21.988Z,19.80
2022-10-26T18:03:49.633Z,19.60
2022-10-26T18:06:19.583Z,19.60
2022-10-26T18:08:46.877Z,19.60
2022-10-26T18:11:25.287Z,19.60
2022-10-26T18:13:57.340Z,19.60
2022-10-26T18:16:25.797Z,19.70
2022-10-26T18:19:00.472Z,19.70
2022-10-26T18:21:28.638Z,19.70
2022-10-26T18:23:55.962Z,19.70
2022-10-26T18:26:26.110Z,19.70
2022-10-26T18:28:53.305Z,19.70
2022-10-26T18:31:22.550Z,19.60
2022-10-26T18:33:49.492Z,19.50
2022-10-26T18:36:18.421Z,19.50
2022-10-26T18:38:47.331Z,19.40
2022-10-26T18:41:15.897Z,19.30
2022-10-26T18:43:49.355Z,19.20
2022-10-26T18:46:20.800Z,19.20
2022-10-26T18:48:48.526Z,19.20
2022-10-26T18:51:17.923Z,19.30
2022-10-26T18:53:49.312Z,19.20
2022-10-26T18:56:18.425Z,19.30
2022-10-26T18:58:48.600Z,19.30
2022-10-26T19:01:15.562Z,19.30
2022-10-26T19:03:44.080Z,19.20
2022-10-26T19:06:22.423Z,19.20
2022-10-26T19:08:49.258Z,19.20
2022-10-26T19:11:17.835Z,19.10
2022-10-26T19:13:44.859Z,19.10
2022-10-26T19:16:33.243Z,19.10
2022-10-26T19:19:10.418Z,19.10
2022-10-26T19:21:37.436Z,19.00
2022-10-26T19:24:04.680Z,19.00
2022-10-26T19:26:36.004Z,19.10
2022-10-26T19:29:07.255Z,19.00
2022-10-26T19:31:35.699Z,19.00
2022-10-26T19:34:03.277Z,18.90
2022-10-26T19:36:30.421Z,18.80
2022-10-26T19:38:57.246Z,18.70
2022-10-26T19:41:26.595Z,18.70
2022-10-26T19:46:32.573Z,18.70
2022-10-26T19:49:01.617Z,18.70
2022-10-26T19:51:31.247Z,18.70
2022-10-26T19:54:07.073Z,18.70
2022-10-26T19:56:36.301Z,18.40
2022-10-26T19:59:03.896Z,18.10
2022-10-26T20:01:30.978Z,17.90
2022-10-26T20:03:57.857Z,17.80
2022-10-26T20:06:24.802Z,17.80
2022-10-26T20:08:51.924Z,17.70
2022-10-26T20:11:19.541Z,17.60
2022-10-26T20:13:47.699Z,17.70
2022-10-26T20:16:16.569Z,17.70
2022-10-26T20:18:47.595Z,17.50
2022-10-26T20:21:17.355Z,17.50
2022-10-26T20:23:44.994Z,17.30
2022-10-26T20:26:18.221Z,17.30
2022-10-26T20:28:48.238Z,17.30
2022-10-26T20:31:15.328Z,17.30
2022-10-26T20:33:42.050Z,17.10
2022-10-26T20:36:09.033Z,17.00
2022-10-26T20:38:36.312Z,17.00
2022-10-26T20:41:06.328Z,16.90
2022-10-26T20:43:38.905Z,16.80
2022-10-26T20:46:06.717Z,16.70
2022-10-26T20:48:38.514Z,16.80
2022-10-26T20:51:15.478Z,16.70
2022-10-26T20:53:54.864Z,16.70
2022-10-26T20:56:27.608Z,16.80
2022-10-26T20:58:56.997Z,16.70
2022-10-26T21:01:32.706Z,16.70
2022-10-26T21:04:02.316Z,16.50
2022-10-26T21:06:29.469Z,16.50
2022-10-26T21:08:57.013Z,16.40
2022-10-26T21:11:26.627Z,17.40
2022-10-26T21:13:54.659Z,16.40
2022-10-26T21:18:53.573Z,16.40
2022-10-26T21:21:20.509Z,16.40
2022-10-26T21:23:47.414Z,16.40
2022-10-26T21:26:14.195Z,16.30
2022-10-26T21:28:45.746Z,16.30
2022-10-26T21:31:14.622Z,16.20
2022-10-26T21:33:41.637Z,16.10
2022-10-26T21:36:12.054Z,16.10
2022-10-26T21:38:39.836Z,16.00
2022-10-26T21:41:09.436Z,16.00
2022-10-26T21:43:37.466Z,15.90
2022-10-26T21:46:05.015Z,16.00
2022-10-26T21:48:33.152Z,16.00
2022-10-26T21:51:05.560Z,15.90
2022-10-26T21:53:32.460Z,15.80
2022-10-26T21:56:07.908Z,15.90
2022-10-26T21:58:34.590Z,15.90
2022-10-26T22:01:12.529Z,16.10
2022-10-26T22:03:40.224Z,16.10
2022-10-26T22:06:08.286Z,16.20
2022-10-26T22:08:35.561Z,16.10
2022-10-26T22:11:08.632Z,16.00
2022-10-26T22:13:37.745Z,15.90
2022-10-26T22:16:13.136Z,15.80
2022-10-26T22:18:44.021Z,15.70
2022-10-26T22:21:12.068Z,15.70
2022-10-26T22:23:40.796Z,15.70
2022-10-26T22:26:10.697Z,15.60
2022-10-26T22:28:41.753Z,15.70
2022-10-26T22:31:16.795Z,15.50
2022-10-26T22:33:44.240Z,15.50
2022-10-26T22:36:13.683Z,15.60
2022-10-26T22:38:41.101Z,15.60
2022-10-26T22:41:09.396Z,15.80
2022-10-26T22:43:36.476Z,15.80
2022-10-26T22:46:04.997Z,15.80
2022-10-26T22:48:32.819Z,15.80
2022-10-26T22:51:04.705Z,15.70
2022-10-26T22:53:31.605Z,15.70
2022-10-26T22:55:58.452Z,15.70
2022-10-26T22:58:25.181Z,15.70
2022-10-26T23:00:51.930Z,15.70
2022-10-26T23:03:18.817Z,15.50
2022-10-26T23:05:47.343Z,15.20
2022-10-26T23:08:14.432Z,15.20
2022-10-26T23:10:41.371Z,15.30
2022-10-26T23:13:08.129Z,15.20
2022-10-26T23:15:35.049Z,15.30
2022-10-26T23:18:01.749Z,15.30
2022-10-26T23:20:28.533Z,15.10
2022-10-26T23:22:55.232Z,15.10
2022-10-26T23:25:21.976Z,15.20
2022-10-26T23:27:48.664Z,15.20
2022-10-26T23:30:17.201Z,15.20
2022-10-26T23:32:44.137Z,15.20
2022-10-26T23:35:11.077Z,15.20
2022-10-26T23:37:37.906Z,15.10
2022-10-26T23:40:05.141Z,15.10
2022-10-26T23:42:31.827Z,15.20
2022-10-26T23:44:58.676Z,15.10
2022-10-26T23:47:25.348Z,15.30
2022-10-26T23:49:52.421Z,15.30
2022-10-26T23:52:19.259Z,15.20
2022-10-26T23:54:46.004Z,15.10
2022-10-26T23:57:12.744Z,15.00
2022-10-26T23:59:39.444Z,14.90
